Terminal Aerodrome Forecast
Issued by NWS Brownsville, TX

Home | Current Version | Previous Version | Text Only | Print | Product List | Glossary On
Versions: 1 2 3 4 5 6 7 8 9 10 11 12 13 14 15 16 17 18
926
FTUS44 KBRO 170309 AAB
TAFBRO
TAF AMD
KBRO 170309Z 1703/1724 30007KT P6SM OVC004
     FM170600 34004KT 4SM BR OVC002
     FM171900 35004KT 5SM BR OVC006=

USA.gov is the U.S. government's official web portal to all federal, state and local government web resources and services.